Cape Girardeau, MO (63701)

6:09 AM CST on December 11, 2016 (GMT -0600)
Cape Girardeau | | Change Station

Elev 404 ft 37.34 °N, 89.57 °W | Updated 8 seconds ago

Overcast
Overcast
40.3 °F
Feels Like 40 °F
N
0.0
Wind Variable Wind from ESE

Today
High -- | Low -- °F
--% Chance of Precip.
Yesterday
High -- | Low -- °F
Precip. -- in
Pressure 30.14 in
Visibility 10.0 miles
Clouds Overcast 4700 ft
Windchill 40 °F
Dew Point 24 °F
Humidity 51%
Rainfall 0.00 in
Snow Depth Not available.
7:02 AM 4:40 PM
Waxing Gibbous, 91% visible
METAR KCGI 111153Z AUTO 18011KT 10SM OVC047 04/M06 A3013 RMK AO2 SLP204 T00391056 10044 20017 56023
Pressure 30.14 in
Visibility 10.0 miles
Clouds Overcast 4700 ft
Windchill 40 °F
Dew Point 24 °F
Humidity 51%
Rainfall 0.00 in
Snow Depth Not available.
7:02 AM 4:40 PM
Waxing Gibbous, 91% visible
METAR KCGI 111153Z AUTO 18011KT 10SM OVC047 04/M06 A3013 RMK AO2 SLP204 T00391056 10044 20017 56023

10-Day Weather Forecast

Almanac

Astronomy

Dec. 11, 2016 Rise Set
Actual Time
Civil Twilight
Nautical Twilight
Astronomical Twilight
Moon
Length of Visible Light
Length of Day
Tomorrow will be .
, % of the Moon is Illuminated

Today's Extremes

State Highs State Lows

Community

WunderPhotos

Upload Photos

1,956,710 photos uploaded!

WunderBlog® & News

Nearby

Air Quality

  Air Quality AQ Index Pollutant
Not available.

Snow Depth

Station Depth Elevation

Earthquake Activity

City Distance Mag. Time & Date
Minimum magnitude displayed is 2.5.

Coastal Water Temperatures

Place Temperature

Stations

Nearby Weather Stations

Station Location Temp. Windchill Dew Point Humidity Wind Precip. Elev Updated Type
                   

Watches & Warnings

There are currently no watches in effect.